Time;durP1;ratioP1;P1;durP2;ratioP2;P2;SDS_P1;SDS_P2;PMS_P1;PMS_P2;Temp;Humidity;BMP_temperature;BMP_pressure;BME280_temperature;BME280_humidity;BME280_pressure;Samples;Min_cycle;Max_cycle;Signal;HPM_P1;HPM_P2
2023/03/08 00:03:01;;;;;;;6.17;5.57;;;;;;;8.08;40.59;96383.16;8417777;28;20243;-68
2023/03/08 00:07:04;;;;;;;6.73;6.03;;;;;;;8.14;40.62;96378.44;8417826;28;20220;-67
2023/03/08 00:11:11;;;;;;;7.77;6.23;;;;;;;8.15;40.32;96398.16;8417302;28;20231;-67
2023/03/08 00:15:14;;;;;;;6.13;5.53;;;;;;;7.80;40.96;96392.50;8417626;28;20236;-67
2023/03/08 00:19:17;;;;;;;9.30;6.13;;;;;;;7.83;40.93;96376.84;8417170;28;20239;-67
2023/03/08 00:23:19;;;;;;;7.77;6.00;;;;;;;8.22;40.27;96393.44;8416805;28;20235;-67
2023/03/08 00:27:23;;;;;;;9.10;6.00;;;;;;;8.03;40.98;96391.97;8417025;28;20587;-68
2023/03/08 00:31:26;;;;;;;6.30;5.70;;;;;;;8.10;40.20;96400.16;8416496;28;20224;-67
2023/03/08 00:35:29;;;;;;;6.70;6.00;;;;;;;7.71;41.27;96399.03;8416715;28;20227;-67
2023/03/08 00:39:32;;;;;;;7.10;5.93;;;;;;;8.00;40.55;96399.88;8416498;28;20236;-68
2023/03/08 00:43:36;;;;;;;7.80;5.73;;;;;;;7.86;40.81;96394.69;8416424;28;20235;-67
2023/03/08 00:47:39;;;;;;;6.27;5.67;;;;;;;7.90;40.61;96393.63;8416355;28;20231;-67
2023/03/08 00:51:44;;;;;;;7.07;5.97;;;;;;;7.90;40.66;96406.50;8415615;28;20236;-68
2023/03/08 00:55:49;;;;;;;8.17;5.50;;;;;;;7.96;40.45;96395.03;8415960;28;20224;-67
2023/03/08 00:59:53;;;;;;;6.40;5.80;;;;;;;7.93;40.51;96395.19;8415983;28;20242;-68
2023/03/08 01:03:56;;;;;;;7.70;5.73;;;;;;;8.01;40.40;96380.94;8415774;28;20231;-69
2023/03/08 01:08:01;;;;;;;7.00;6.00;;;;;;;8.02;40.32;96390.31;8415719;28;20243;-69
2023/03/08 01:12:05;;;;;;;8.77;6.37;;;;;;;7.84;40.26;96396.53;8415610;28;20239;-69
2023/03/08 01:16:14;;;;;;;6.73;6.03;;;;;;;7.93;40.24;96401.16;8415607;28;20568;-69
2023/03/08 01:20:17;;;;;;;6.77;6.07;;;;;;;8.12;39.99;96394.94;8415365;28;20224;-68
2023/03/08 01:24:21;;;;;;;6.57;5.97;;;;;;;8.12;40.08;96395.75;8415253;28;20228;-69
2023/03/08 01:28:24;;;;;;;6.90;6.30;;;;;;;8.11;39.85;96398.41;8415029;28;20255;-68
2023/03/08 01:32:28;;;;;;;9.17;5.80;;;;;;;7.88;40.22;96392.91;8414750;28;20415;-68
2023/03/08 01:36:31;;;;;;;6.70;6.00;;;;;;;7.92;40.23;96386.63;8414899;28;20255;-68
2023/03/08 01:40:34;;;;;;;6.47;5.53;;;;;;;7.92;39.98;96386.63;8414669;28;20244;-69
2023/03/08 01:44:53;;;;;;;7.50;6.00;;;;;;;7.94;40.03;96386.53;8414017;28;20232;-69
2023/03/08 01:49:01;;;;;;;7.13;5.90;;;;;;;7.87;40.07;96365.44;8420081;28;20278;-68
2023/03/08 01:53:04;;;;;;;7.67;6.17;;;;;;;7.98;40.28;96385.44;8414094;28;20235;-69
2023/03/08 01:57:11;;;;;;;7.10;6.30;;;;;;;7.83;40.06;96382.00;8414207;28;20239;-69
2023/03/08 02:01:14;;;;;;;8.00;6.40;;;;;;;7.99;39.87;96387.91;8414013;28;20449;-68
2023/03/08 02:05:19;;;;;;;6.90;5.90;;;;;;;7.93;39.91;96380.53;9106465;22;20392;-72
2023/03/08 02:09:22;;;;;;;7.73;6.17;;;;;;;8.10;39.45;96376.97;8380190;28;20240;-73
2023/03/08 02:13:25;;;;;;;6.97;6.20;;;;;;;8.01;39.67;96374.94;8380511;28;20524;-71
2023/03/08 02:17:28;;;;;;;7.17;6.40;;;;;;;8.08;39.64;96362.53;8379802;28;20232;-71
2023/03/08 02:21:33;;;;;;;7.60;6.27;;;;;;;8.13;39.70;96368.22;8380466;28;20228;-71
2023/03/08 02:25:37;;;;;;;6.73;6.03;;;;;;;8.21;39.27;96364.25;8380276;28;20255;-71
2023/03/08 02:29:39;;;;;;;7.60;6.13;;;;;;;7.88;39.93;96356.81;8379789;28;20541;-70
2023/03/08 02:33:42;;;;;;;7.23;6.10;;;;;;;8.01;39.57;96362.03;8379452;28;20417;-70
2023/03/08 02:37:45;;;;;;;8.03;6.33;;;;;;;8.08;39.86;96360.75;8379912;28;20232;-70
2023/03/08 02:41:49;;;;;;;7.27;6.20;;;;;;;8.20;39.48;96351.44;8379711;28;20224;-71
2023/03/08 02:45:52;;;;;;;7.70;6.70;;;;;;;8.17;39.56;96343.91;8379192;28;20299;-71
2023/03/08 02:49:55;;;;;;;7.43;6.43;;;;;;;8.48;41.89;96352.41;8379449;28;20314;-70
2023/03/08 02:53:58;;;;;;;8.40;6.53;;;;;;;7.83;40.37;96345.94;8379439;28;20229;-71
2023/03/08 02:58:02;;;;;;;8.07;6.20;;;;;;;7.93;40.21;96365.06;8378507;28;20229;-71
2023/03/08 03:02:05;;;;;;;8.23;6.43;;;;;;;8.14;39.82;96362.97;8379044;28;20221;-71
2023/03/08 03:06:13;;;;;;;7.57;6.00;;;;;;;7.95;40.12;96363.22;8378890;28;20497;-71
2023/03/08 03:10:16;;;;;;;6.67;6.00;;;;;;;8.16;40.23;96357.72;8378931;28;20262;-71
2023/03/08 03:14:21;;;;;;;8.00;6.27;;;;;;;8.10;40.12;96345.22;8378716;28;20233;-71
2023/03/08 03:18:23;;;;;;;7.00;6.30;;;;;;;8.19;40.17;96348.06;8378943;28;20229;-71
2023/03/08 03:22:27;;;;;;;7.97;6.63;;;;;;;7.89;40.59;96355.88;8378976;28;20233;-71
2023/03/08 03:26:30;;;;;;;7.63;6.37;;;;;;;8.22;40.00;96347.03;8378580;28;20233;-71
2023/03/08 03:30:34;;;;;;;6.97;5.83;;;;;;;8.14;40.02;96315.72;8378447;28;20271;-72
2023/03/08 03:34:37;;;;;;;6.73;6.00;;;;;;;8.18;39.81;96332.66;8378926;28;20235;-73
2023/03/08 03:38:40;;;;;;;7.70;6.07;;;;;;;8.39;39.51;96336.50;8379807;28;20278;-72
2023/03/08 03:42:42;;;;;;;7.20;5.77;;;;;;;8.14;39.73;96331.19;8378121;28;20237;-72
2023/03/08 03:46:46;;;;;;;6.40;5.70;;;;;;;8.28;39.66;96331.19;8378267;28;20233;-73
2023/03/08 03:50:54;;;;;;;6.00;5.40;;;;;;;8.09;39.83;96331.50;8378166;28;20236;-73
2023/03/08 03:54:57;;;;;;;5.97;5.37;;;;;;;8.22;39.35;96326.41;8378306;28;20225;-73
2023/03/08 03:59:00;;;;;;;6.17;5.57;;;;;;;8.08;39.85;96339.31;8378499;28;20427;-72
2023/03/08 04:03:04;;;;;;;6.73;5.97;;;;;;;8.13;39.61;96330.38;8378726;28;20231;-72
2023/03/08 04:07:07;;;;;;;6.63;5.93;;;;;;;7.85;39.64;96338.13;8378532;28;20459;-73
2023/03/08 04:11:10;;;;;;;7.27;6.57;;;;;;;7.90;39.83;96329.19;8384294;28;20529;-73
2023/03/08 04:15:13;;;;;;;6.20;5.60;;;;;;;8.21;39.64;96330.75;8384567;28;20233;-73
2023/03/08 04:19:17;;;;;;;7.20;6.40;;;;;;;7.76;40.13;96322.25;8383784;28;20241;-73
2023/03/08 04:23:19;;;;;;;6.87;6.20;;;;;;;7.88;40.06;96314.72;8384035;28;20228;-73
2023/03/08 04:27:22;;;;;;;6.60;5.97;;;;;;;8.05;39.57;96322.25;8384250;28;20233;-73
2023/03/08 04:31:26;;;;;;;6.83;6.13;;;;;;;7.57;39.50;96267.59;8383792;28;20593;-73
2023/03/08 04:35:30;;;;;;;7.43;6.00;;;;;;;7.70;39.85;96319.22;8383816;28;20296;-73
2023/03/08 04:39:33;;;;;;;6.87;5.57;;;;;;;8.07;39.70;96307.53;8383583;28;20532;-73
2023/03/08 04:43:36;;;;;;;7.73;6.10;;;;;;;7.99;39.45;96307.16;8383542;28;20240;-71
2023/03/08 04:47:38;;;;;;;8.43;5.87;;;;;;;7.93;39.45;96297.25;8383315;28;20259;-71
2023/03/08 04:51:43;;;;;;;7.20;6.40;;;;;;;7.67;40.13;96296.22;8382703;28;20555;-73
2023/03/08 04:55:46;;;;;;;6.30;5.70;;;;;;;7.83;39.71;96284.91;8383747;28;20228;-73
2023/03/08 04:59:49;;;;;;;7.70;6.70;;;;;;;8.00;39.42;96286.47;8383153;28;20225;-73
2023/03/08 05:03:52;;;;;;;9.17;6.57;;;;;;;7.96;39.22;96289.34;8382903;28;20532;-74
2023/03/08 05:07:56;;;;;;;8.47;6.77;;;;;;;8.07;39.12;96286.06;8382993;28;20225;-73
2023/03/08 05:11:59;;;;;;;8.93;6.37;;;;;;;8.15;39.58;96269.22;8382670;28;20298;-72
2023/03/08 05:16:06;;;;;;;7.10;6.40;;;;;;;6.49;39.69;96062.84;8382712;28;20240;-72
2023/03/08 05:20:10;;;;;;;7.50;6.50;;;;;;;8.22;39.18;96251.63;8382404;28;20231;-70
2023/03/08 05:24:14;;;;;;;8.67;6.70;;;;;;;8.17;39.19;96254.50;8382685;28;20229;-71
2023/03/08 05:28:17;;;;;;;9.93;7.30;;;;;;;7.55;39.83;96248.81;8382265;28;20240;-71
2023/03/08 05:32:20;;;;;;;8.17;6.80;;;;;;;8.03;39.55;96260.50;8381721;28;20233;-71
2023/03/08 05:36:23;;;;;;;10.67;7.57;;;;;;;7.96;39.44;96259.22;8381854;28;20243;-71
2023/03/08 05:40:28;;;;;;;11.87;7.83;;;;;;;7.55;40.00;96249.66;8381565;28;20224;-70
2023/03/08 05:44:31;;;;;;;8.70;7.40;;;;;;;7.76;40.00;96250.09;8381496;28;20255;-70
2023/03/08 05:48:35;;;;;;;9.17;7.13;;;;;;;7.72;39.92;96248.63;8381166;28;20233;-70
2023/03/08 05:52:41;;;;;;;8.63;6.80;;;;;;;7.83;39.56;96251.41;8380911;28;20536;-70
2023/03/08 05:56:45;;;;;;;9.90;7.33;;;;;;;7.78;39.98;96252.59;8355605;28;20532;-71
2023/03/08 06:00:48;;;;;;;7.10;6.40;;;;;;;7.91;39.55;96260.41;8347681;28;20244;-71
2023/03/08 06:04:50;;;;;;;9.43;7.50;;;;;;;7.71;40.44;96266.75;8347698;28;20233;-71
2023/03/08 06:08:55;;;;;;;9.13;6.70;;;;;;;8.08;39.64;96270.53;8347884;28;20240;-71
2023/03/08 06:13:02;;;;;;;7.57;6.77;;;;;;;7.57;40.28;96278.72;8347276;28;20545;-70
2023/03/08 06:17:05;;;;;;;10.63;8.57;;;;;;;7.75;40.26;96275.97;8346949;28;20229;-71
2023/03/08 06:21:12;;;;;;;9.53;7.17;;;;;;;7.83;40.13;96264.28;8347544;28;20464;-70
2023/03/08 06:25:15;;;;;;;8.50;6.60;;;;;;;7.87;39.76;96264.09;8346996;28;20232;-71
2023/03/08 06:29:20;;;;;;;9.97;6.80;;;;;;;8.06;39.74;96271.56;8347421;28;20240;-71
2023/03/08 06:33:24;;;;;;;9.60;7.23;;;;;;;8.01;39.83;96270.09;8346532;28;20237;-71
2023/03/08 06:37:27;;;;;;;11.43;7.40;;;;;;;7.85;40.28;96277.06;8347132;28;20229;-71
2023/03/08 06:41:30;;;;;;;10.83;7.27;;;;;;;8.12;39.57;96269.41;8346528;28;20241;-71
2023/03/08 06:45:34;;;;;;;10.30;7.97;;;;;;;7.68;40.40;96254.91;8346718;28;20324;-71
2023/03/08 06:49:36;;;;;;;8.60;7.23;;;;;;;7.79;40.30;96254.25;8346643;28;20230;-71
2023/03/08 06:53:39;;;;;;;8.93;7.13;;;;;;;7.60;40.62;96239.09;8346534;28;20490;-71
2023/03/08 06:57:42;;;;;;;10.03;7.07;;;;;;;8.03;39.97;96260.50;8346134;28;20425;-71
2023/03/08 07:01:46;;;;;;;10.27;7.70;;;;;;;8.02;39.69;96258.84;8346329;28;20238;-71
2023/03/08 07:05:49;;;;;;;8.93;7.23;;;;;;;7.91;40.12;96257.84;8346177;28;20248;-71
2023/03/08 07:09:51;;;;;;;8.13;7.27;;;;;;;8.14;39.70;96261.59;8346366;28;20571;-70
2023/03/08 07:13:54;;;;;;;10.50;7.13;;;;;;;8.17;39.42;96256.25;8346276;28;20494;-71
2023/03/08 07:17:59;;;;;;;9.87;7.27;;;;;;;8.08;39.68;96251.66;8346331;28;20233;-71
2023/03/08 07:22:01;;;;;;;9.27;7.17;;;;;;;8.27;39.45;96257.31;8346170;28;20248;-71
2023/03/08 07:26:05;;;;;;;11.30;7.43;;;;;;;8.15;39.64;96246.03;8346246;28;20226;-71
2023/03/08 07:30:12;;;;;;;9.97;7.10;;;;;;;8.09;39.54;96250.72;8346218;28;20217;-71
2023/03/08 07:34:20;;;;;;;9.10;7.67;;;;;;;8.34;39.19;96253.44;8346227;28;20402;-71
2023/03/08 07:38:22;;;;;;;9.27;7.33;;;;;;;8.16;40.23;96263.13;8346133;28;20229;-69
2023/03/08 07:42:26;;;;;;;9.17;6.90;;;;;;;8.18;40.45;96250.97;8347119;28;20420;-69
2023/03/08 07:46:29;;;;;;;11.67;6.87;;;;;;;7.71;41.59;96246.16;8352553;28;20229;-69
2023/03/08 07:50:34;;;;;;;9.97;8.20;;;;;;;7.29;42.54;96256.34;8352545;28;20231;-69
2023/03/08 07:54:38;;;;;;;10.17;8.93;;;;;;;7.31;43.25;96262.25;8351925;28;20253;-69
2023/03/08 07:58:41;;;;;;;8.60;7.17;;;;;;;7.91;43.57;96265.56;8385333;28;20292;-70
2023/03/08 08:02:44;;;;;;;9.40;6.90;;;;;;;7.50;46.28;96262.00;8384615;28;20232;-69
2023/03/08 08:06:49;;;;;;;8.03;6.83;;;;;;;7.22;49.56;96263.59;8384773;28;20233;-69
2023/03/08 08:10:51;;;;;;;8.43;7.27;;;;;;;7.72;48.30;96256.38;8384778;28;20572;-69
2023/03/08 08:14:58;;;;;;;9.03;7.43;;;;;;;7.93;48.67;96253.41;8384023;28;20237;-69
2023/03/08 08:19:01;;;;;;;10.33;7.77;;;;;;;7.73;49.78;96252.03;8384197;28;20242;-69
2023/03/08 08:23:06;;;;;;;8.73;7.23;;;;;;;7.59;51.00;96238.22;8384251;28;20261;-69
2023/03/08 08:27:09;;;;;;;11.43;7.70;;;;;;;7.70;50.67;96235.03;8384270;28;20225;-69
2023/03/08 08:31:15;;;;;;;12.23;8.70;;;;;;;7.42;51.79;96223.81;8384126;28;20514;-69
2023/03/08 08:35:18;;;;;;;10.63;8.80;;;;;;;7.29;52.73;96210.00;8384054;28;20225;-69
2023/03/08 08:39:22;;;;;;;11.47;9.50;;;;;;;6.77;54.78;96205.28;8383702;28;20229;-69
2023/03/08 08:43:25;;;;;;;9.63;7.77;;;;;;;7.17;54.34;96182.38;8383443;28;20570;-69
2023/03/08 08:47:28;;;;;;;13.10;9.10;;;;;;;6.75;55.23;96156.50;8383284;28;20233;-69
2023/03/08 08:51:31;;;;;;;14.27;9.90;;;;;;;7.16;54.75;96163.56;8382849;28;20551;-69
2023/03/08 08:55:36;;;;;;;11.27;9.10;;;;;;;6.65;56.65;96160.53;8381801;28;20233;-69
2023/03/08 08:59:42;;;;;;;11.53;8.97;;;;;;;6.68;56.88;96141.50;8382488;28;20414;-71
2023/03/08 09:03:45;;;;;;;10.80;8.13;;;;;;;6.28;58.54;96146.34;8382868;28;20232;-70
2023/03/08 09:07:48;;;;;;;10.93;8.40;;;;;;;6.04;59.38;96134.78;8382334;28;20240;-70
2023/03/08 09:11:52;;;;;;;10.00;8.23;;;;;;;6.24;59.51;96125.13;8382587;28;20416;-70
2023/03/08 09:15:57;;;;;;;11.20;8.60;;;;;;;5.99;60.47;96107.69;8382342;28;20244;-70
2023/03/08 09:20:00;;;;;;;11.23;8.83;;;;;;;5.05;63.14;96100.69;8382457;28;20236;-70
2023/03/08 09:24:05;;;;;;;10.80;8.17;;;;;;;4.63;65.80;96078.91;8382346;28;20240;-69
2023/03/08 09:28:11;;;;;;;11.33;8.37;;;;;;;5.62;62.25;96066.84;8382040;28;20225;-70
2023/03/08 09:32:13;;;;;;;12.27;9.50;;;;;;;5.23;64.37;96064.69;8382171;28;20236;-69
2023/03/08 09:36:16;;;;;;;12.37;9.40;;;;;;;5.33;62.36;96050.47;8381998;28;20225;-69
2023/03/08 09:40:21;;;;;;;13.90;9.77;;;;;;;5.35;63.99;96038.38;8381664;28;20244;-70
2023/03/08 09:44:42;;;;;;;16.67;12.40;;;;;;;5.24;64.14;96030.44;8381597;28;20244;-70
2023/03/08 09:48:47;;;;;;;15.47;11.33;;;;;;;5.48;63.04;95998.28;8380963;28;20229;-70
2023/03/08 09:52:56;;;;;;;13.10;10.53;;;;;;;4.74;65.06;96000.56;8381029;28;20233;-70
2023/03/08 09:57:01;;;;;;;15.77;11.43;;;;;;;6.12;65.65;95982.72;8381098;28;20415;-72
2023/03/08 10:01:14;;;;;;;13.00;9.83;;;;;;;6.52;62.96;95984.69;8380920;28;20245;-69
2023/03/08 10:05:23;;;;;;;13.30;10.17;;;;;;;7.33;56.84;95969.41;8380350;28;20236;-70
2023/03/08 10:09:31;;;;;;;14.23;11.33;;;;;;;5.78;62.50;95953.81;8380432;28;20224;-69
2023/03/08 10:13:35;;;;;;;15.20;12.37;;;;;;;5.59;63.20;95956.59;8380332;28;20521;-69
2023/03/08 10:17:45;;;;;;;15.30;12.10;;;;;;;5.27;63.41;95938.69;8380502;28;20532;-69
2023/03/08 10:21:47;;;;;;;21.43;13.70;;;;;;;6.01;60.15;95933.69;8379407;28;20230;-69
2023/03/08 10:25:51;;;;;;;19.13;14.87;;;;;;;4.87;65.09;95938.31;8380240;28;20232;-70
2023/03/08 10:29:55;;;;;;;13.97;11.60;;;;;;;6.32;60.41;95953.28;8379888;28;20255;-69
2023/03/08 10:34:04;;;;;;;17.63;14.20;;;;;;;5.17;64.23;95936.72;8379828;28;20247;-69
2023/03/08 10:38:16;;;;;;;21.60;15.03;;;;;;;5.22;64.83;95943.25;8379665;28;20228;-69
2023/03/08 10:42:21;;;;;;;19.60;14.50;;;;;;;5.64;63.61;95946.88;8379853;28;20245;-70
2023/03/08 10:46:27;;;;;;;16.97;13.40;;;;;;;6.05;62.36;95936.00;8379228;28;20237;-70
2023/03/08 10:50:35;;;;;;;20.53;15.73;;;;;;;5.71;64.12;95931.13;8379404;28;20229;-70
2023/03/08 10:54:38;;;;;;;17.30;15.10;;;;;;;4.82;66.74;95917.22;8379010;28;20347;-71
2023/03/08 10:58:40;;;;;;;18.80;15.50;;;;;;;5.22;66.50;95915.03;8379307;28;20229;-71
2023/03/08 11:02:43;;;;;;;17.13;14.13;;;;;;;5.08;66.26;95904.69;8378790;28;20220;-71
2023/03/08 11:06:48;;;;;;;19.47;14.90;;;;;;;4.65;67.87;95892.47;8378856;28;20237;-70
2023/03/08 11:11:01;;;;;;;20.87;16.20;;;;;;;4.61;68.74;95905.56;8379125;28;20240;-70
2023/03/08 11:15:13;;;;;;;16.43;14.23;;;;;;;5.15;67.24;95893.19;8378761;28;20386;-71
2023/03/08 11:19:26;;;;;;;17.30;13.70;;;;;;;5.15;67.55;95888.03;8377969;28;20244;-71
2023/03/08 11:23:34;;;;;;;16.03;14.17;;;;;;;5.06;67.77;95891.97;8378620;28;20229;-71
2023/03/08 11:27:48;;;;;;;17.67;15.00;;;;;;;5.47;67.34;95885.41;8378919;28;20558;-71
2023/03/08 11:31:56;;;;;;;16.53;14.00;;;;;;;5.29;68.17;95885.53;8371825;28;20233;-71
2023/03/08 11:36:02;;;;;;;17.53;14.17;;;;;;;6.09;65.20;95879.28;8378780;28;20239;-71
2023/03/08 11:40:19;;;;;;;17.60;14.10;;;;;;;5.32;67.33;95864.00;8378621;28;20224;-70
2023/03/08 11:44:33;;;;;;;17.73;14.73;;;;;;;5.70;66.23;95878.94;8378629;28;20240;-71
2023/03/08 11:48:54;;;;;;;16.07;13.50;;;;;;;5.97;65.77;95871.38;8378879;28;20237;-71
2023/03/08 11:53:09;;;;;;;17.23;14.63;;;;;;;5.86;66.81;95856.59;8378558;28;20327;-71
2023/03/08 11:57:14;;;;;;;17.07;14.10;;;;;;;5.38;69.69;95832.03;8378768;28;20401;-71
2023/03/08 12:01:21;;;;;;;16.77;14.07;;;;;;;6.11;66.64;95846.59;8378773;28;20555;-71
2023/03/08 12:05:28;;;;;;;16.70;14.90;;;;;;;5.52;68.33;95833.78;8378253;28;20424;-71
2023/03/08 12:09:34;;;;;;;17.33;14.90;;;;;;;5.96;67.19;95833.78;8378238;28;20295;-71
2023/03/08 12:13:40;;;;;;;17.37;15.10;;;;;;;5.24;69.06;95814.84;8378294;28;20408;-70
2023/03/08 12:17:46;;;;;;;16.90;15.03;;;;;;;5.70;68.30;95814.75;8377873;28;20233;-71
2023/03/08 12:21:54;;;;;;;18.90;15.67;;;;;;;5.76;69.61;95808.41;8378294;28;20236;-71
2023/03/08 12:26:03;;;;;;;21.77;16.57;;;;;;;5.60;69.06;95801.63;8378002;28;20232;-70
2023/03/08 12:30:16;;;;;;;16.57;14.77;;;;;;;6.22;67.35;95806.47;8381593;28;20404;-71
2023/03/08 12:34:30;;;;;;;18.13;15.40;;;;;;;5.03;68.11;95634.75;8383758;28;20225;-71
2023/03/08 12:38:37;;;;;;;19.07;15.87;;;;;;;5.92;69.54;95774.91;8383624;28;20281;-70
2023/03/08 12:42:41;;;;;;;19.33;15.83;;;;;;;5.98;69.64;95757.44;8383506;28;20225;-70
2023/03/08 12:46:50;;;;;;;18.33;16.07;;;;;;;5.97;69.32;95745.50;8383192;28;20226;-71
2023/03/08 12:51:09;;;;;;;16.97;14.93;;;;;;;6.19;69.43;95744.19;8383534;28;20224;-71
2023/03/08 12:55:19;;;;;;;20.03;16.37;;;;;;;6.34;68.79;95738.09;8383497;28;20232;-71
2023/03/08 12:59:28;;;;;;;22.17;17.00;;;;;;;5.88;71.06;95718.59;8383220;28;20224;-71
2023/03/08 13:03:40;;;;;;;21.70;17.77;;;;;;;6.19;71.37;95734.72;8383171;28;20237;-71
2023/03/08 13:07:52;;;;;;;19.37;15.63;;;;;;;6.74;69.25;95738.13;8382519;28;20233;-72
2023/03/08 13:12:01;;;;;;;17.70;15.20;;;;;;;6.98;68.05;95738.25;8382959;28;20233;-71
2023/03/08 13:16:19;;;;;;;18.27;14.80;;;;;;;7.05;68.71;95725.81;8382781;28;20240;-71
2023/03/08 13:20:27;;;;;;;19.53;15.80;;;;;;;7.47;67.46;95729.03;8382794;28;20236;-71
2023/03/08 13:24:40;;;;;;;19.27;15.80;;;;;;;7.37;67.96;95740.88;8382580;28;20496;-71
2023/03/08 13:28:44;;;;;;;19.83;15.27;;;;;;;7.66;67.07;95735.50;8381956;28;20449;-72
2023/03/08 13:32:50;;;;;;;18.57;15.27;;;;;;;7.64;67.73;95713.25;8382607;28;20414;-71
2023/03/08 13:36:54;;;;;;;18.97;15.53;;;;;;;7.76;68.32;95737.34;8382023;28;20228;-71
2023/03/08 13:40:58;;;;;;;17.37;14.43;;;;;;;7.69;67.75;95702.63;8381356;28;20259;-72
2023/03/08 13:45:10;;;;;;;14.97;13.30;;;;;;;8.09;66.40;95706.75;8381891;28;20379;-72
2023/03/08 13:49:19;;;;;;;17.87;14.63;;;;;;;8.20;67.22;95722.28;8381738;28;20232;-72
2023/03/08 13:53:24;;;;;;;18.83;14.83;;;;;;;8.09;67.64;95705.00;8381193;28;20233;-72
2023/03/08 13:57:36;;;;;;;18.53;14.73;;;;;;;8.37;66.77;95724.50;8381201;28;20544;-71
2023/03/08 14:01:47;;;;;;;19.20;15.33;;;;;;;8.35;66.86;95705.72;8381387;28;20547;-71
2023/03/08 14:05:50;;;;;;;17.93;15.33;;;;;;;8.16;68.04;95702.81;8380797;28;20508;-71
2023/03/08 14:09:54;;;;;;;17.17;14.60;;;;;;;8.43;67.92;95696.66;8382891;28;20229;-71
2023/03/08 14:13:58;;;;;;;16.67;13.77;;;;;;;8.00;67.86;95613.69;8380958;28;20229;-72
2023/03/08 14:18:03;;;;;;;15.87;14.13;;;;;;;8.57;67.82;95686.19;8381085;28;20241;-72
2023/03/08 14:22:11;;;;;;;16.37;13.63;;;;;;;8.73;67.53;95670.38;8380510;28;20233;-71
2023/03/08 14:26:27;;;;;;;16.00;13.27;;;;;;;8.72;68.32;95650.66;8381193;28;20295;-72
2023/03/08 14:30:31;;;;;;;15.30;13.63;;;;;;;8.75;69.14;95659.00;8381248;28;20543;-71
2023/03/08 14:34:38;;;;;;;15.97;13.13;;;;;;;8.90;68.56;95651.06;8382118;28;20240;-72
2023/03/08 14:38:40;;;;;;;17.23;12.57;;;;;;;8.86;69.58;95672.91;8381113;28;20560;-72
2023/03/08 14:42:47;;;;;;;14.77;12.20;;;;;;;9.09;68.65;95674.56;8347271;28;20420;-71
2023/03/08 14:46:57;;;;;;;13.47;11.00;;;;;;;9.08;69.62;95669.53;8347316;28;20311;-70
2023/03/08 14:51:01;;;;;;;13.63;11.73;;;;;;;9.18;69.49;95663.56;8347490;28;20221;-72
2023/03/08 14:55:19;;;;;;;12.40;10.80;;;;;;;9.18;70.25;95655.81;8347377;28;20237;-73
2023/03/08 14:59:25;;;;;;;11.37;10.13;;;;;;;9.34;69.68;95657.22;8347980;28;20584;-73
2023/03/08 15:03:31;;;;;;;12.53;10.63;;;;;;;9.56;68.44;95657.25;8347315;28;20237;-72
2023/03/08 15:07:35;;;;;;;14.03;9.83;;;;;;;9.70;68.50;95655.34;8347715;28;20539;-70
2023/03/08 15:11:39;;;;;;;12.52;11.23;;;;;;;10.31;66.26;95642.78;8345619;28;20424;-72
2023/03/08 15:15:43;;;;;;;12.37;11.00;;;;;;;9.78;68.78;95640.06;8378968;28;20518;-72
2023/03/08 15:19:46;;;;;;;11.83;10.67;;;;;;;9.92;67.67;95657.91;8380420;28;20578;-73
2023/03/08 15:23:48;;;;;;;11.13;9.50;;;;;;;9.87;68.81;95648.88;8380529;28;20233;-73
2023/03/08 15:27:51;;;;;;;11.57;10.03;;;;;;;9.92;68.35;95662.25;8379127;28;20249;-72
2023/03/08 15:31:56;;;;;;;10.23;8.20;;;;;;;9.81;69.47;95652.75;8379408;28;20236;-72
2023/03/08 15:36:01;;;;;;;8.50;7.60;;;;;;;9.70;70.90;95653.56;8379219;28;20529;-72
2023/03/08 15:40:06;;;;;;;6.03;5.50;;;;;;;9.62;72.71;95637.03;8379551;28;20236;-72
2023/03/08 15:44:10;;;;;;;5.13;4.63;;;;;;;9.88;72.39;95669.44;8379095;28;20283;-72
2023/03/08 15:48:15;;;;;;;3.70;3.23;;;;;;;9.82;74.06;95664.72;8379649;28;20220;-72
2023/03/08 15:52:18;;;;;;;2.57;2.33;;;;;;;9.84;74.37;95654.25;8379167;28;20420;-71
2023/03/08 15:56:21;;;;;;;1.97;1.70;;;;;;;9.82;74.30;95646.63;8379032;28;20229;-71
2023/03/08 16:00:25;;;;;;;1.87;1.70;;;;;;;9.90;74.73;95639.09;8378914;28;20243;-71
2023/03/08 16:04:31;;;;;;;1.43;1.20;;;;;;;9.94;74.09;95648.25;8380930;28;20240;-71
2023/03/08 16:08:35;;;;;;;3.90;3.00;;;;;;;9.87;73.29;95641.94;8384638;28;20229;-73
2023/03/08 16:12:38;;;;;;;1.97;1.10;;;;;;;9.95;73.31;95636.97;8384839;28;20233;-73
2023/03/08 16:16:41;;;;;;;2.20;2.00;;;;;;;9.69;73.26;95589.94;8383855;28;20324;-74
2023/03/08 16:20:49;;;;;;;2.53;2.33;;;;;;;9.25;72.84;95501.19;8384790;28;20272;-73
2023/03/08 16:24:52;;;;;;;2.40;1.43;;;;;;;10.09;73.00;95611.78;8384635;28;20537;-73
2023/03/08 16:28:55;;;;;;;1.73;1.50;;;;;;;10.16;72.19;95616.34;8383967;28;20224;-73
2023/03/08 16:32:58;;;;;;;4.00;3.50;;;;;;;10.26;71.69;95616.44;8384511;28;20236;-72
2023/03/08 16:37:04;;;;;;;4.70;4.23;;;;;;;10.16;72.78;95618.91;8384058;28;20261;-74
2023/03/08 16:41:07;;;;;;;4.27;3.87;;;;;;;10.16;71.18;95595.66;8384140;28;20466;-73
2023/03/08 16:45:16;;;;;;;1.83;1.30;;;;;;;9.94;73.36;95608.66;8383807;28;20242;-74
2023/03/08 16:49:19;;;;;;;3.50;2.10;;;;;;;10.71;70.27;95610.25;8382758;28;20406;-72
2023/03/08 16:53:26;;;;;;;3.97;2.87;;;;;;;10.61;70.45;95599.03;8384134;28;20425;-74
2023/03/08 16:57:29;;;;;;;2.40;1.83;;;;;;;10.27;72.98;95605.13;8384183;28;20418;-73
2023/03/08 17:01:32;;;;;;;3.07;2.00;;;;;;;10.40;71.97;95601.59;8384653;28;20228;-74
2023/03/08 17:05:38;;;;;;;3.60;2.47;;;;;;;10.23;73.09;95608.91;8383766;28;20540;-73
2023/03/08 17:09:44;;;;;;;1.40;1.23;;;;;;;10.39;73.40;95615.47;8383158;28;20233;-74
2023/03/08 17:13:49;;;;;;;2.20;1.50;;;;;;;10.20;73.12;95591.03;8382728;28;20227;-74
2023/03/08 17:17:53;;;;;;;1.57;1.37;;;;;;;10.30;73.59;95586.81;8380405;28;20289;-74
2023/03/08 17:21:56;;;;;;;1.43;1.10;;;;;;;10.41;73.92;95614.38;8383048;28;20243;-74
2023/03/08 17:26:03;;;;;;;1.50;1.40;;;;;;;10.30;73.79;95598.88;8382900;28;20436;-74
2023/03/08 17:30:09;;;;;;;2.63;1.97;;;;;;;10.43;74.36;95622.03;8382784;28;20229;-74
2023/03/08 17:34:11;;;;;;;2.20;2.00;;;;;;;10.39;75.11;95624.03;8382163;28;20527;-74
2023/03/08 17:38:14;;;;;;;2.77;2.57;;;;;;;10.32;74.50;95603.03;8382696;28;20232;-74
2023/03/08 17:42:19;;;;;;;3.60;2.37;;;;;;;10.56;74.17;95623.50;8382391;28;20417;-74
2023/03/08 17:46:23;;;;;;;2.57;2.27;;;;;;;10.55;74.31;95639.16;8381895;28;20344;-73
2023/03/08 17:50:28;;;;;;;2.97;2.70;;;;;;;10.56;74.50;95640.78;8372796;28;20293;-73
2023/03/08 17:54:31;;;;;;;3.00;2.70;;;;;;;10.60;74.09;95631.03;8381874;28;20271;-73
2023/03/08 17:58:35;;;;;;;4.67;4.27;;;;;;;10.63;73.15;95639.34;8381093;28;20226;-72
2023/03/08 18:02:38;;;;;;;6.43;5.70;;;;;;;10.69;74.13;95645.81;8380977;28;20233;-72
2023/03/08 18:06:43;;;;;;;5.73;5.20;;;;;;;10.69;73.25;95650.97;8380558;28;20237;-73
2023/03/08 18:10:46;;;;;;;4.73;4.33;;;;;;;10.73;72.99;95645.41;8380879;28;20340;-73
2023/03/08 18:14:51;;;;;;;6.17;4.60;;;;;;;10.76;73.08;95634.81;8380676;28;20457;-72
2023/03/08 18:18:54;;;;;;;5.13;4.40;;;;;;;10.76;73.54;95637.41;8380243;28;20229;-73
2023/03/08 18:22:57;;;;;;;6.30;5.03;;;;;;;10.71;73.24;95615.44;8380231;28;20528;-72
2023/03/08 18:27:00;;;;;;;4.73;4.23;;;;;;;10.71;73.85;95630.97;8379941;28;20551;-73
2023/03/08 18:31:07;;;;;;;5.60;4.27;;;;;;;10.74;73.89;95643.66;8380171;28;20230;-74
2023/03/08 18:35:12;;;;;;;3.50;3.20;;;;;;;10.50;75.28;95634.34;8380153;28;20300;-72
2023/03/08 18:39:14;;;;;;;4.63;4.23;;;;;;;10.61;74.27;95625.72;8379802;28;20244;-73
2023/03/08 18:43:17;;;;;;;3.23;3.03;;;;;;;10.44;73.13;95627.09;8379731;28;20228;-74
2023/03/08 18:47:21;;;;;;;3.27;2.97;;;;;;;10.35;73.22;95628.66;8379874;28;20235;-74
2023/03/08 18:51:24;;;;;;;126.00;47.27;;;;;;;11.71;74.84;95630.38;8379273;28;20234;-75
2023/03/08 18:55:27;;;;;;;82.77;32.00;;;;;;;12.17;71.22;95625.59;8379556;28;20236;-74
2023/03/08 18:59:32;;;;;;;44.97;17.77;;;;;;;13.02;68.49;95606.69;8379659;28;20233;-74
2023/03/08 19:03:36;;;;;;;3.37;2.03;;;;;;;11.66;68.37;95578.09;8379463;28;20235;-71
2023/03/08 19:07:39;;;;;;;5.90;5.00;;;;;;;11.31;69.70;95592.31;8379283;28;20544;-72
2023/03/08 19:11:43;;;;;;;1.20;1.20;;;;;;;11.33;69.78;95616.31;8354033;28;20234;-74
2023/03/08 19:15:46;;;;;;;1.53;1.20;;;;;;;11.06;70.57;95635.81;8345795;28;20260;-73